createdAt,value
2024-01-06T00:42:52.972Z,89.40
2024-01-06T00:45:20.483Z,89.46
2024-01-06T00:47:48.047Z,89.46
2024-01-06T01:20:09.458Z,87.42
2024-01-06T01:22:38.485Z,87.35
2024-01-06T01:25:09.321Z,86.79
2024-01-06T01:27:37.150Z,86.72
2024-01-06T02:11:33.229Z,85.98
2024-01-06T02:47:10.417Z,88.62
2024-01-06T03:00:04.901Z,89.63
2024-01-06T03:02:33.464Z,89.28
2024-01-06T03:05:00.881Z,89.17
2024-01-06T03:07:28.235Z,89.24
2024-01-06T03:09:55.586Z,89.30
2024-01-06T03:12:24.348Z,89.30
2024-01-06T03:14:53.144Z,89.78
2024-01-06T03:17:21.483Z,89.37
2024-01-06T03:19:50.865Z,89.01
2024-01-06T03:22:18.380Z,88.88
2024-01-06T03:43:22.323Z,88.54
2024-01-06T03:46:15.138Z,89.15
2024-01-06T03:48:42.529Z,88.48
2024-01-06T04:12:15.613Z,88.47
2024-01-06T05:31:56.766Z,88.73
2024-01-06T05:34:26.686Z,88.31
2024-01-06T05:36:55.206Z,88.37
2024-01-06T05:39:26.413Z,88.12
2024-01-06T05:41:55.255Z,88.00
2024-01-06T05:44:22.977Z,88.93
2024-01-06T05:46:52.402Z,88.43
2024-01-06T05:49:22.218Z,87.88
2024-01-06T05:51:50.243Z,89.38
2024-01-06T05:54:17.707Z,88.38
2024-01-06T05:56:47.175Z,88.12
2024-01-06T05:59:17.224Z,89.00
2024-01-06T06:07:11.487Z,88.08
2024-01-06T06:20:36.838Z,86.13
2024-01-06T06:23:04.937Z,86.15
2024-01-06T06:25:38.430Z,85.81
2024-01-06T06:28:10.482Z,85.51
2024-01-06T06:30:39.867Z,85.58
2024-01-06T06:33:09.336Z,85.97
2024-01-06T06:38:24.054Z,86.28
2024-01-06T06:43:35.644Z,85.59
2024-01-06T06:46:04.098Z,85.00
2024-01-06T07:38:32.752Z,82.13
2024-01-06T07:49:34.589Z,82.46
2024-01-06T07:52:04.798Z,81.67
2024-01-06T07:54:43.947Z,81.63
2024-01-06T08:13:49.806Z,82.17
2024-01-06T08:21:53.187Z,82.78
2024-01-06T08:30:04.609Z,82.42
2024-01-06T08:32:34.484Z,82.46
2024-01-06T08:35:06.856Z,82.11
2024-01-06T08:37:36.220Z,82.65
2024-01-06T08:40:22.322Z,83.25
2024-01-06T08:42:57.366Z,82.86
2024-01-06T08:48:25.612Z,82.67
2024-01-06T08:54:01.543Z,80.88
2024-01-06T08:56:40.533Z,80.16
2024-01-06T08:59:20.197Z,80.59
2024-01-06T09:07:55.104Z,80.08
2024-01-06T09:10:36.891Z,79.93
2024-01-06T09:16:02.754Z,80.16
2024-01-06T10:08:13.315Z,82.78
2024-01-06T10:17:18.765Z,83.96
2024-01-06T10:39:46.178Z,84.78
2024-01-06T10:42:22.018Z,84.87
2024-01-06T10:44:59.098Z,85.31
2024-01-06T10:48:11.271Z,86.03
2024-01-06T10:50:39.749Z,86.23
2024-01-06T10:53:38.242Z,86.74
2024-01-06T10:56:31.327Z,87.80
2024-01-06T10:59:33.482Z,86.18
2024-01-06T11:02:23.725Z,86.60
2024-01-06T11:08:15.450Z,84.80
2024-01-06T11:10:49.240Z,83.81
2024-01-06T11:13:49.529Z,83.67
2024-01-06T11:16:55.242Z,84.92
2024-01-06T12:34:20.790Z,89.18
2024-01-06T12:46:29.127Z,89.10
2024-01-06T12:50:06.412Z,89.45
2024-01-06T12:58:50.277Z,89.90
2024-01-06T13:01:23.617Z,90.36
2024-01-06T13:03:57.816Z,90.69
2024-01-06T13:06:37.168Z,90.62
2024-01-06T13:09:10.844Z,90.49
2024-01-06T13:11:48.942Z,90.67
2024-01-06T13:14:22.183Z,90.05
2024-01-06T13:16:59.844Z,90.44
2024-01-06T13:22:38.179Z,90.75
2024-01-06T13:25:41.971Z,90.68
2024-01-06T13:28:10.733Z,91.00
2024-01-06T13:33:38.794Z,91.35
2024-01-06T13:36:10.592Z,91.34
2024-01-06T13:38:41.311Z,91.17
2024-01-06T13:41:16.766Z,90.77
2024-01-06T13:52:52.569Z,90.97
2024-01-06T14:03:48.902Z,91.49
2024-01-06T14:06:32.728Z,91.21
2024-01-06T14:12:21.597Z,91.18
2024-01-06T14:14:52.063Z,90.89
2024-01-06T14:17:58.708Z,91.12
2024-01-06T14:20:40.108Z,90.90
2024-01-06T14:25:57.510Z,91.44
2024-01-06T14:28:36.457Z,91.06
2024-01-06T14:31:28.260Z,91.58
2024-01-06T14:34:05.904Z,92.14
2024-01-06T14:36:55.963Z,90.91
2024-01-06T14:39:35.741Z,90.26
2024-01-06T14:42:17.062Z,90.82
2024-01-06T14:44:51.617Z,90.55
2024-01-06T14:47:37.895Z,90.14
2024-01-06T14:53:18.740Z,90.57
2024-01-06T15:01:38.704Z,89.98
2024-01-06T15:17:20.683Z,89.87
2024-01-06T15:51:03.995Z,93.05
2024-01-06T16:09:22.522Z,93.00
2024-01-06T16:15:00.478Z,94.21
2024-01-06T16:23:23.474Z,94.33
2024-01-06T16:26:26.948Z,94.39
2024-01-06T16:28:55.304Z,94.90
2024-01-06T16:31:31.615Z,94.92
2024-01-06T16:34:03.827Z,94.79
2024-01-06T16:36:39.750Z,94.42
2024-01-06T16:39:33.137Z,94.31
2024-01-06T17:08:29.432Z,96.04
2024-01-06T17:45:34.102Z,96.27
2024-01-06T17:50:54.585Z,96.92
2024-01-06T17:53:34.144Z,97.65
2024-01-06T17:56:08.079Z,97.23
2024-01-06T17:58:37.023Z,97.65
2024-01-06T18:01:05.888Z,98.10
2024-01-06T18:03:36.847Z,98.55
2024-01-06T18:06:14.152Z,98.94
2024-01-06T18:11:44.594Z,98.53
2024-01-06T18:14:41.543Z,99.11
2024-01-06T18:17:15.812Z,99.26
2024-01-06T18:22:35.069Z,100.00
2024-01-06T18:25:19.515Z,98.64
2024-01-06T18:28:02.869Z,98.48
2024-01-06T18:30:47.739Z,98.81
2024-01-06T18:33:27.036Z,98.13
2024-01-06T18:36:03.400Z,98.43
2024-01-06T18:38:35.633Z,98.30
2024-01-06T18:41:08.756Z,97.26
2024-01-06T18:46:45.844Z,96.79
2024-01-06T18:49:26.131Z,96.19
2024-01-06T18:52:08.632Z,96.11
2024-01-06T18:54:51.070Z,95.92
2024-01-06T18:57:31.558Z,96.19
2024-01-06T19:00:02.380Z,95.73
2024-01-06T19:02:36.661Z,96.12
2024-01-06T19:05:41.017Z,96.32
2024-01-06T19:08:24.287Z,96.26
2024-01-06T19:10:54.383Z,96.06
2024-01-06T19:54:01.477Z,92.82
2024-01-06T19:56:43.343Z,92.17
2024-01-06T19:59:21.691Z,91.61
2024-01-06T20:01:51.895Z,90.84
2024-01-06T20:04:28.630Z,92.73
2024-01-06T20:10:28.689Z,92.43
2024-01-06T20:13:02.449Z,92.77
2024-01-06T20:15:30.322Z,93.21
2024-01-06T20:21:01.379Z,92.74
2024-01-06T20:23:28.778Z,93.69
2024-01-06T20:25:58.242Z,94.18
2024-01-06T20:28:26.274Z,94.66
2024-01-06T22:01:42.275Z,93.84
2024-01-06T22:04:13.330Z,92.46
2024-01-06T22:06:40.935Z,92.55
2024-01-06T22:44:34.103Z,92.67
2024-01-06T23:39:14.098Z,92.67
2024-01-06T23:41:41.456Z,92.87
